Time;durP1;ratioP1;P1;durP2;ratioP2;P2;SDS_P1;SDS_P2;PMS_P1;PMS_P2;Temp;Humidity;BMP_temperature;BMP_pressure;BME280_temperature;BME280_humidity;BME280_pressure;Samples;Min_cycle;Max_cycle;Signal;HPM_P1;HPM_P2
2022/02/21 00:02:13;;;;;;;;;;;9.70;84.40;;;;;;5082158;28;19958;-71
2022/02/21 00:04:38;;;;;;;;;;;9.70;84.50;;;;;;5082463;28;20203;-71
2022/02/21 00:07:04;;;;;;;;;;;9.70;84.60;;;;;;5082088;28;19975;-71
2022/02/21 00:09:30;;;;;;;;;;;9.70;84.40;;;;;;5082443;28;20207;-70
2022/02/21 00:11:56;;;;;;;;;;;9.70;84.30;;;;;;5082102;28;19909;-71
2022/02/21 00:14:21;;;;;;;;;;;9.70;83.80;;;;;;5082495;28;19931;-71
2022/02/21 00:16:47;;;;;;;;;;;9.70;83.80;;;;;;5081203;28;19915;-70
2022/02/21 00:19:13;;;;;;;;;;;9.80;83.80;;;;;;5064599;28;19915;-71
2022/02/21 00:21:38;;;;;;;;;;;9.80;83.90;;;;;;5081662;28;20092;-70
2022/02/21 00:24:04;;;;;;;;;;;9.80;83.80;;;;;;5082286;28;19963;-71
2022/02/21 00:26:30;;;;;;;;;;;9.80;83.40;;;;;;5064589;28;19967;-71
2022/02/21 00:28:56;;;;;;;;;;;9.90;83.70;;;;;;5085842;28;19915;-71
2022/02/21 00:31:22;;;;;;;;;;;9.80;84.90;;;;;;5085504;28;19966;-71
2022/02/21 00:33:48;;;;;;;;;;;9.80;84.90;;;;;;5085798;28;20130;-71
2022/02/21 00:36:13;;;;;;;;;;;9.80;85.20;;;;;;5084928;28;19912;-71
2022/02/21 00:38:39;;;;;;;;;;;9.70;85.90;;;;;;5084828;28;20155;-71
2022/02/21 00:41:05;;;;;;;;;;;9.70;86.50;;;;;;5084362;28;19943;-70
2022/02/21 00:43:30;;;;;;;;;;;9.70;85.80;;;;;;5050303;28;20219;-71
2022/02/21 00:45:56;;;;;;;;;;;9.70;86.90;;;;;;5066721;28;19947;-71
2022/02/21 00:48:22;;;;;;;;;;;9.60;86.80;;;;;;5084543;28;19908;-71
2022/02/21 00:50:47;;;;;;;;;;;9.60;87.00;;;;;;5083883;28;20128;-71
2022/02/21 00:53:14;;;;;;;;;;;9.60;87.30;;;;;;5084953;28;19956;-70
2022/02/21 00:55:40;;;;;;;;;;;9.60;87.00;;;;;;5084530;28;19913;-71
2022/02/21 00:58:06;;;;;;;;;;;9.60;87.00;;;;;;5084428;28;19915;-71
2022/02/21 01:00:32;;;;;;;;;;;9.60;87.20;;;;;;5084449;28;19961;-70
2022/02/21 01:02:57;;;;;;;;;;;9.60;86.50;;;;;;5066347;28;19920;-71
2022/02/21 01:05:23;;;;;;;;;;;9.60;86.80;;;;;;5084325;28;19908;-71
2022/02/21 01:07:49;;;;;;;;;;;9.70;86.40;;;;;;5083979;28;20001;-71
2022/02/21 01:10:14;;;;;;;;;;;9.60;86.50;;;;;;5084025;28;20001;-71
2022/02/21 01:12:40;;;;;;;;;;;9.70;86.20;;;;;;5083834;28;19943;-71
2022/02/21 01:15:07;;;;;;;;;;;9.70;86.00;;;;;;5082785;28;19908;-71
2022/02/21 01:17:32;;;;;;;;;;;9.60;85.70;;;;;;5084140;28;19980;-71
2022/02/21 01:20:03;;;;;;;;;;;9.60;85.90;;;;;;5083909;28;20219;-71
2022/02/21 01:22:30;;;;;;;;;;;9.70;85.30;;;;;;5065265;28;19919;-71
2022/02/21 01:24:56;;;;;;;;;;;9.70;85.20;;;;;;5066214;28;20076;-71
2022/02/21 01:27:21;;;;;;;;;;;9.70;84.80;;;;;;5083513;28;19909;-71
2022/02/21 01:29:47;;;;;;;;;;;9.80;84.60;;;;;;5083690;28;19909;-71
2022/02/21 01:32:13;;;;;;;;;;;9.80;84.40;;;;;;5083079;28;20249;-71
2022/02/21 01:34:38;;;;;;;;;;;9.80;84.70;;;;;;5065854;28;19909;-71
2022/02/21 01:37:04;;;;;;;;;;;9.90;84.30;;;;;;5082747;28;19912;-71
2022/02/21 01:39:30;;;;;;;;;;;9.90;84.30;;;;;;5064507;28;20025;-71
2022/02/21 01:41:56;;;;;;;;;;;9.90;84.40;;;;;;5082961;28;19950;-71
2022/02/21 01:44:35;;;;;;;;;;;9.90;84.40;;;;;;5083219;28;19916;-71
2022/02/21 01:47:01;;;;;;;;;;;9.90;84.30;;;;;;5049388;28;19923;-71
2022/02/21 01:49:27;;;;;;;;;;;9.90;84.50;;;;;;5083080;28;19909;-70
2022/02/21 01:51:53;;;;;;;;;;;9.90;84.20;;;;;;5082443;28;19908;-69
2022/02/21 01:54:18;;;;;;;;;;;9.90;84.50;;;;;;5065317;28;19909;-69
2022/02/21 01:56:44;;;;;;;;;;;9.90;84.60;;;;;;5065033;28;19908;-70
2022/02/21 01:59:10;;;;;;;;;;;9.90;84.60;;;;;;5083083;28;20061;-70
2022/02/21 02:01:35;;;;;;;;;;;9.90;84.70;;;;;;5082469;28;19912;-70
2022/02/21 02:04:01;;;;;;;;;;;9.90;84.20;;;;;;5082778;28;19908;-69
2022/02/21 02:06:28;;;;;;;;;;;9.90;84.30;;;;;;5064911;28;19974;-70
2022/02/21 02:08:54;;;;;;;;;;;9.90;84.70;;;;;;5065083;28;19931;-70
2022/02/21 02:11:20;;;;;;;;;;;9.90;84.80;;;;;;5082761;28;19951;-70
2022/02/21 02:13:49;;;;;;;;;;;9.90;84.60;;;;;;5082898;28;19934;-69
2022/02/21 02:16:15;;;;;;;;;;;9.90;84.80;;;;;;5063872;28;19908;-70
2022/02/21 02:18:41;;;;;;;;;;;10.00;84.60;;;;;;5082692;28;19908;-70
2022/02/21 02:21:06;;;;;;;;;;;9.90;84.70;;;;;;5082195;28;20278;-70
2022/02/21 02:23:32;;;;;;;;;;;9.90;85.10;;;;;;5082542;28;19912;-70
2022/02/21 02:25:58;;;;;;;;;;;9.90;85.00;;;;;;5064739;28;19916;-70
2022/02/21 02:28:24;;;;;;;;;;;9.90;85.00;;;;;;5082660;28;19975;-70
2022/02/21 02:30:50;;;;;;;;;;;9.90;85.30;;;;;;5064421;28;19909;-69
2022/02/21 02:33:15;;;;;;;;;;;9.90;85.30;;;;;;5082401;28;20014;-70
2022/02/21 02:35:41;;;;;;;;;;;9.90;85.80;;;;;;5082281;28;20103;-70
2022/02/21 02:38:07;;;;;;;;;;;9.90;85.80;;;;;;5082208;28;19915;-70
2022/02/21 02:40:34;;;;;;;;;;;9.90;86.00;;;;;;5082292;28;19916;-70
2022/02/21 02:43:01;;;;;;;;;;;9.90;85.90;;;;;;5082263;28;19920;-70
2022/02/21 02:45:28;;;;;;;;;;;9.90;85.80;;;;;;5064395;28;19908;-70
2022/02/21 02:47:54;;;;;;;;;;;9.90;86.20;;;;;;5064640;28;20255;-70
2022/02/21 02:50:19;;;;;;;;;;;9.90;86.20;;;;;;5064203;28;19924;-70
2022/02/21 02:52:45;;;;;;;;;;;9.90;86.50;;;;;;5081755;28;20074;-70
2022/02/21 02:55:11;;;;;;;;;;;9.90;86.50;;;;;;5082162;28;20256;-70
2022/02/21 02:57:37;;;;;;;;;;;9.90;86.50;;;;;;5082312;28;19909;-69
2022/02/21 03:00:03;;;;;;;;;;;9.80;86.50;;;;;;5082331;28;19927;-70
2022/02/21 03:02:29;;;;;;;;;;;9.90;86.80;;;;;;5058568;28;20116;-70
2022/02/21 03:04:55;;;;;;;;;;;9.90;87.50;;;;;;5056090;28;19916;-69
2022/02/21 03:07:20;;;;;;;;;;;9.90;87.80;;;;;;5059702;28;19909;-69
2022/02/21 03:09:46;;;;;;;;;;;9.90;88.30;;;;;;5036164;28;19916;-70
2022/02/21 03:12:12;;;;;;;;;;;9.80;88.60;;;;;;5060927;28;19908;-70
2022/02/21 03:14:38;;;;;;;;;;;9.80;88.60;;;;;;5062091;28;19963;-70
2022/02/21 03:17:04;;;;;;;;;;;9.80;88.80;;;;;;5076672;28;19908;-70
2022/02/21 03:19:29;;;;;;;;;;;9.80;89.00;;;;;;5064491;28;19979;-70
2022/02/21 03:21:56;;;;;;;;;;;9.80;89.70;;;;;;5081721;28;19913;-70
2022/02/21 03:24:22;;;;;;;;;;;9.80;90.00;;;;;;5082124;28;20134;-70
2022/02/21 03:26:48;;;;;;;;;;;9.70;90.60;;;;;;5047490;28;19908;-70
2022/02/21 03:29:14;;;;;;;;;;;9.60;91.40;;;;;;5082076;28;20209;-70
2022/02/21 03:31:40;;;;;;;;;;;9.50;91.40;;;;;;5081178;28;19909;-70
2022/02/21 03:34:05;;;;;;;;;;;9.40;91.60;;;;;;5053058;28;19916;-70
2022/02/21 03:38:59;;;;;;;;;;;9.40;91.30;;;;;;5054066;28;19925;-65
2022/02/21 03:41:25;;;;;;;;;;;9.50;91.10;;;;;;5052302;28;19980;-66
2022/02/21 03:43:51;;;;;;;;;;;9.50;91.00;;;;;;5054233;28;20018;-66
2022/02/21 03:46:16;;;;;;;;;;;9.50;91.00;;;;;;5062374;28;19954;-65
2022/02/21 03:48:42;;;;;;;;;;;9.50;90.90;;;;;;5036355;28;19909;-64
2022/02/21 03:51:08;;;;;;;;;;;9.20;93.50;;;;;;5062090;28;19973;-63
2022/02/21 03:53:33;;;;;;;;;;;8.20;94.10;;;;;;5057843;28;19909;-63
2022/02/21 03:55:59;;;;;;;;;;;7.00;94.60;;;;;;5057375;28;19975;-66
2022/02/21 03:58:25;;;;;;;;;;;6.40;95.90;;;;;;5055807;28;20140;-63
2022/02/21 04:00:50;;;;;;;;;;;5.90;96.10;;;;;;5050363;28;19972;-64
2022/02/21 04:03:16;;;;;;;;;;;5.50;96.60;;;;;;5062517;28;20092;-64
2022/02/21 04:05:42;;;;;;;;;;;5.20;97.00;;;;;;5066218;28;20239;-63
2022/02/21 04:08:08;;;;;;;;;;;5.00;96.80;;;;;;5053822;28;19915;-63
2022/02/21 04:10:34;;;;;;;;;;;4.70;96.40;;;;;;5045940;28;20169;-65
2022/02/21 04:12:59;;;;;;;;;;;4.40;97.80;;;;;;5045925;28;19939;-65
2022/02/21 04:15:25;;;;;;;;;;;4.40;97.80;;;;;;5045943;28;19939;-66
2022/02/21 04:17:51;;;;;;;;;;;4.30;97.30;;;;;;5051293;28;19943;-66
2022/02/21 04:20:22;;;;;;;;;;;4.30;97.80;;;;;;5057466;28;19917;-65
2022/02/21 04:22:48;;;;;;;;;;;4.20;97.40;;;;;;5064184;28;19920;-65
2022/02/21 04:25:14;;;;;;;;;;;4.20;97.40;;;;;;5065742;28;19912;-66
2022/02/21 04:27:47;;;;;;;;;;;4.30;97.60;;;;;;5066038;28;19932;-65
2022/02/21 04:30:14;;;;;;;;;;;4.30;97.20;;;;;;5065791;28;19986;-65
2022/02/21 04:32:40;;;;;;;;;;;4.30;96.80;;;;;;5047383;28;19920;-66
2022/02/21 04:35:06;;;;;;;;;;;4.30;97.00;;;;;;5057200;28;20172;-66
2022/02/21 04:37:32;;;;;;;;;;;4.20;96.90;;;;;;5054825;28;20199;-66
2022/02/21 04:39:58;;;;;;;;;;;4.20;97.30;;;;;;5050680;28;19966;-67
2022/02/21 04:42:24;;;;;;;;;;;4.30;96.80;;;;;;5046844;28;20208;-66
2022/02/21 04:44:50;;;;;;;;;;;4.30;96.50;;;;;;5056877;28;19975;-66
2022/02/21 04:47:15;;;;;;;;;;;4.30;96.90;;;;;;5065283;28;19909;-67
2022/02/21 04:49:41;;;;;;;;;;;4.30;96.20;;;;;;5062914;28;19908;-65
2022/02/21 04:52:07;;;;;;;;;;;4.40;96.00;;;;;;5052915;28;19955;-66
2022/02/21 04:54:32;;;;;;;;;;;4.40;95.80;;;;;;5064689;28;20112;-66
2022/02/21 04:56:58;;;;;;;;;;;4.40;95.90;;;;;;5065132;28;19913;-66
2022/02/21 04:59:24;;;;;;;;;;;4.40;95.90;;;;;;5064627;28;19931;-67
2022/02/21 05:01:49;;;;;;;;;;;4.40;95.20;;;;;;5058767;28;20011;-66
2022/02/21 05:04:15;;;;;;;;;;;4.50;95.20;;;;;;5062171;28;19948;-66
2022/02/21 05:06:41;;;;;;;;;;;4.50;94.80;;;;;;5064955;28;20104;-66
2022/02/21 05:09:06;;;;;;;;;;;4.50;95.00;;;;;;5044775;28;19971;-66
2022/02/21 05:11:32;;;;;;;;;;;4.50;94.60;;;;;;5044710;28;19937;-66
2022/02/21 05:13:58;;;;;;;;;;;4.60;95.00;;;;;;5044889;28;20112;-66
2022/02/21 05:16:23;;;;;;;;;;;4.60;94.70;;;;;;5044921;28;19916;-64
2022/02/21 05:18:49;;;;;;;;;;;4.70;94.60;;;;;;5027063;28;19932;-62
2022/02/21 05:21:15;;;;;;;;;;;4.70;94.30;;;;;;5044361;28;20107;-62
2022/02/21 05:23:40;;;;;;;;;;;4.70;94.50;;;;;;5044442;28;19920;-61
2022/02/21 05:26:07;;;;;;;;;;;4.80;95.00;;;;;;5039349;28;19984;-62
2022/02/21 05:28:33;;;;;;;;;;;4.80;95.00;;;;;;5055204;28;19947;-59
2022/02/21 05:30:59;;;;;;;;;;;4.90;95.10;;;;;;5044540;28;19913;-65
2022/02/21 05:33:25;;;;;;;;;;;4.90;94.90;;;;;;5053841;28;19909;-64
2022/02/21 05:35:51;;;;;;;;;;;4.90;95.80;;;;;;5057269;28;19936;-61
2022/02/21 05:38:16;;;;;;;;;;;5.00;96.20;;;;;;5048690;28;19912;-63
2022/02/21 05:40:42;;;;;;;;;;;4.80;95.70;;;;;;5052110;28;20072;-63
2022/02/21 05:43:08;;;;;;;;;;;4.70;96.20;;;;;;5055787;28;19913;-63
2022/02/21 05:45:33;;;;;;;;;;;4.70;96.30;;;;;;5055674;28;19909;-63
2022/02/21 05:47:59;;;;;;;;;;;4.70;96.40;;;;;;5063851;28;19967;-62
2022/02/21 05:50:25;;;;;;;;;;;4.60;95.90;;;;;;5064067;28;20487;-64
2022/02/21 05:52:50;;;;;;;;;;;4.60;96.00;;;;;;5063650;28;19940;-64
2022/02/21 05:55:16;;;;;;;;;;;4.50;96.40;;;;;;5064074;28;19955;-63
2022/02/21 05:57:42;;;;;;;;;;;4.50;96.40;;;;;;5063720;28;19908;-65
2022/02/21 06:00:08;;;;;;;;;;;4.60;96.20;;;;;;5061878;28;19909;-64
2022/02/21 06:02:34;;;;;;;;;;;4.50;95.40;;;;;;5050446;28;19921;-64
2022/02/21 06:05:00;;;;;;;;;;;4.50;95.60;;;;;;5037828;28;19948;-64
2022/02/21 06:07:25;;;;;;;;;;;4.60;95.80;;;;;;5045683;28;19920;-64
2022/02/21 06:09:51;;;;;;;;;;;4.60;96.10;;;;;;5029450;28;20209;-65
2022/02/21 06:12:17;;;;;;;;;;;4.60;95.80;;;;;;5023511;28;19936;-65
2022/02/21 06:14:43;;;;;;;;;;;4.60;95.90;;;;;;5040782;28;20119;-64
2022/02/21 06:17:08;;;;;;;;;;;4.70;96.00;;;;;;5051698;28;19972;-64
2022/02/21 06:19:34;;;;;;;;;;;4.60;95.90;;;;;;5041133;28;19920;-64
2022/02/21 06:22:02;;;;;;;;;;;4.70;95.40;;;;;;5054620;28;20146;-64
2022/02/21 06:24:27;;;;;;;;;;;4.70;95.70;;;;;;5062692;28;19947;-64
2022/02/21 06:26:53;;;;;;;;;;;4.70;95.70;;;;;;5063345;28;19908;-65
2022/02/21 06:29:20;;;;;;;;;;;4.80;96.10;;;;;;5063394;28;19909;-65
2022/02/21 06:31:46;;;;;;;;;;;4.80;95.80;;;;;;5062953;28;19947;-64
2022/02/21 06:34:12;;;;;;;;;;;4.80;96.10;;;;;;5063759;28;19979;-64
2022/02/21 06:36:38;;;;;;;;;;;4.80;96.20;;;;;;5063004;28;19909;-65
2022/02/21 06:39:04;;;;;;;;;;;4.80;96.30;;;;;;5062854;28;19908;-65
2022/02/21 06:41:29;;;;;;;;;;;4.80;96.40;;;;;;5062632;28;20081;-65
2022/02/21 06:43:55;;;;;;;;;;;4.70;96.50;;;;;;5063147;28;19916;-65
2022/02/21 06:46:21;;;;;;;;;;;4.70;96.40;;;;;;5060246;28;19908;-65
2022/02/21 06:48:46;;;;;;;;;;;4.60;94.70;;;;;;5042932;28;20182;-65
2022/02/21 06:51:12;;;;;;;;;;;4.70;93.30;;;;;;5043054;28;20047;-64
2022/02/21 06:53:38;;;;;;;;;;;4.80;93.60;;;;;;5042693;28;19909;-64
2022/02/21 06:56:03;;;;;;;;;;;4.80;92.80;;;;;;5043006;28;20252;-65
2022/02/21 06:58:29;;;;;;;;;;;4.80;92.30;;;;;;5042323;28;19909;-65
2022/02/21 07:00:55;;;;;;;;;;;4.80;91.50;;;;;;5042689;28;19917;-64
2022/02/21 07:03:21;;;;;;;;;;;4.80;90.50;;;;;;5042710;28;19914;-65
2022/02/21 07:05:46;;;;;;;;;;;4.80;88.80;;;;;;5042780;28;19909;-66
2022/02/21 07:08:12;;;;;;;;;;;4.80;89.40;;;;;;5042019;28;19912;-66
2022/02/21 07:10:38;;;;;;;;;;;4.90;87.30;;;;;;5042141;28;19920;-64
2022/02/21 07:13:04;;;;;;;;;;;4.90;89.00;;;;;;5042599;28;19913;-65
2022/02/21 07:15:30;;;;;;;;;;;4.90;87.60;;;;;;5042502;28;19955;-65
2022/02/21 07:17:57;;;;;;;;;;;4.90;87.40;;;;;;5042548;28;19917;-64
2022/02/21 07:20:25;;;;;;;;;;;5.00;86.50;;;;;;5042407;28;19989;-65
2022/02/21 07:22:50;;;;;;;;;;;5.00;85.50;;;;;;5042123;28;19917;-65
2022/02/21 07:25:17;;;;;;;;;;;5.00;87.20;;;;;;5042375;28;19909;-65
2022/02/21 07:27:45;;;;;;;;;;;5.00;86.60;;;;;;5042432;28;19983;-65
2022/02/21 07:30:12;;;;;;;;;;;5.00;86.30;;;;;;5042544;28;19932;-65
2022/02/21 07:32:37;;;;;;;;;;;5.00;86.50;;;;;;5042301;28;19909;-64
2022/02/21 07:35:04;;;;;;;;;;;5.00;86.00;;;;;;5042638;28;20109;-64
2022/02/21 07:37:30;;;;;;;;;;;5.10;86.60;;;;;;5043823;28;20224;-64
2022/02/21 07:39:56;;;;;;;;;;;5.00;86.10;;;;;;5046423;28;19909;-64
2022/02/21 07:42:22;;;;;;;;;;;5.00;86.90;;;;;;5046251;28;19917;-64
2022/02/21 07:44:50;;;;;;;;;;;5.00;87.90;;;;;;5046548;28;20199;-63
2022/02/21 07:47:17;;;;;;;;;;;5.00;88.50;;;;;;5046345;28;19909;-64
2022/02/21 07:49:42;;;;;;;;;;;5.10;87.40;;;;;;5046466;28;19909;-64
2022/02/21 07:52:08;;;;;;;;;;;5.10;87.90;;;;;;5046080;28;20307;-64
2022/02/21 07:54:34;;;;;;;;;;;5.20;88.40;;;;;;5045986;28;20226;-63
2022/02/21 07:57:01;;;;;;;;;;;5.20;89.30;;;;;;5046320;28;19909;-64
2022/02/21 07:59:27;;;;;;;;;;;5.30;88.60;;;;;;5028391;28;20207;-64
2022/02/21 08:01:53;;;;;;;;;;;5.30;89.20;;;;;;5028292;28;19913;-64
2022/02/21 08:04:19;;;;;;;;;;;5.30;83.20;;;;;;5046224;28;19916;-63
2022/02/21 08:06:46;;;;;;;;;;;5.30;82.00;;;;;;5046052;28;19917;-64
2022/02/21 08:09:12;;;;;;;;;;;5.20;82.40;;;;;;5045896;28;20072;-64
2022/02/21 08:11:39;;;;;;;;;;;5.20;79.70;;;;;;5045705;28;19945;-65
2022/02/21 08:14:05;;;;;;;;;;;5.30;76.70;;;;;;5046081;28;19909;-63
2022/02/21 08:16:31;;;;;;;;;;;5.30;79.10;;;;;;5045780;28;19955;-64
2022/02/21 08:18:57;;;;;;;;;;;5.30;82.10;;;;;;5027611;28;20015;-64
2022/02/21 08:21:23;;;;;;;;;;;5.30;81.10;;;;;;5045328;28;19913;-64
2022/02/21 08:23:48;;;;;;;;;;;5.40;81.90;;;;;;5045354;28;19909;-64
2022/02/21 08:26:14;;;;;;;;;;;5.50;78.70;;;;;;5045616;28;20171;-64
2022/02/21 08:28:41;;;;;;;;;;;5.50;77.40;;;;;;5045584;28;19990;-64
2022/02/21 08:31:06;;;;;;;;;;;5.50;76.30;;;;;;5045148;28;20219;-64
2022/02/21 08:33:32;;;;;;;;;;;5.50;74.00;;;;;;5045459;28;19916;-64
2022/02/21 08:35:58;;;;;;;;;;;5.40;74.60;;;;;;5045364;28;20108;-64
2022/02/21 08:38:23;;;;;;;;;;;5.40;75.90;;;;;;5044962;28;19990;-65
2022/02/21 08:40:49;;;;;;;;;;;5.40;73.70;;;;;;5045060;28;20208;-64
2022/02/21 08:43:15;;;;;;;;;;;5.50;74.80;;;;;;5045376;28;19931;-64
2022/02/21 08:45:41;;;;;;;;;;;5.50;74.80;;;;;;5045472;28;19917;-64
2022/02/21 08:48:06;;;;;;;;;;;5.60;72.80;;;;;;5044619;28;19909;-64
2022/02/21 08:50:32;;;;;;;;;;;5.60;72.70;;;;;;5045270;28;20172;-61
2022/02/21 08:52:58;;;;;;;;;;;5.60;72.70;;;;;;5045049;28;19944;-64
2022/02/21 08:55:23;;;;;;;;;;;5.70;71.30;;;;;;5045208;28;19909;-63
2022/02/21 08:57:49;;;;;;;;;;;5.80;72.70;;;;;;5045199;28;20155;-64
2022/02/21 09:00:15;;;;;;;;;;;5.80;72.50;;;;;;5044893;28;20169;-64
2022/02/21 09:02:44;;;;;;;;;;;5.90;71.40;;;;;;5044548;28;20093;-64
2022/02/21 09:05:11;;;;;;;;;;;5.90;71.20;;;;;;5045037;28;19909;-65
2022/02/21 09:07:37;;;;;;;;;;;6.00;72.30;;;;;;5044693;28;19909;-64
2022/02/21 09:10:04;;;;;;;;;;;5.90;69.80;;;;;;5044787;28;19916;-66
2022/02/21 09:12:30;;;;;;;;;;;5.90;72.00;;;;;;5044597;28;19909;-64
2022/02/21 09:14:58;;;;;;;;;;;6.00;71.50;;;;;;5044843;28;19988;-64
2022/02/21 09:17:24;;;;;;;;;;;6.00;69.00;;;;;;5044588;28;19917;-65
2022/02/21 09:19:49;;;;;;;;;;;6.00;70.00;;;;;;5044724;28;19921;-64
2022/02/21 09:22:15;;;;;;;;;;;6.00;68.50;;;;;;5042885;28;20211;-64
2022/02/21 09:24:41;;;;;;;;;;;6.10;71.50;;;;;;5044305;28;20089;-64
2022/02/21 09:27:09;;;;;;;;;;;6.10;69.90;;;;;;5044507;28;19916;-64
2022/02/21 09:29:35;;;;;;;;;;;6.10;69.80;;;;;;5044551;28;19909;-64
2022/02/21 09:32:01;;;;;;;;;;;6.20;70.20;;;;;;5044107;28;19917;-64
2022/02/21 09:34:27;;;;;;;;;;;6.20;69.00;;;;;;5044458;28;19972;-63
2022/02/21 09:36:52;;;;;;;;;;;6.40;68.30;;;;;;5044401;28;19916;-63
2022/02/21 09:39:18;;;;;;;;;;;6.50;69.20;;;;;;5075796;22;19920;-72
2022/02/21 09:41:44;;;;;;;;;;;6.60;69.20;;;;;;5051182;28;19913;-72
2022/02/21 09:44:10;;;;;;;;;;;6.60;68.00;;;;;;5043364;28;19975;-72
2022/02/21 09:46:35;;;;;;;;;;;6.60;68.10;;;;;;5044396;28;20188;-72
2022/02/21 09:49:01;;;;;;;;;;;6.70;66.30;;;;;;5043087;28;20211;-70
2022/02/21 09:51:27;;;;;;;;;;;6.70;67.50;;;;;;5044085;28;19909;-72
2022/02/21 09:53:53;;;;;;;;;;;6.80;66.40;;;;;;5043354;28;19909;-72
2022/02/21 09:56:19;;;;;;;;;;;6.70;63.90;;;;;;5042989;28;19988;-70
2022/02/21 09:58:44;;;;;;;;;;;6.60;65.30;;;;;;5043952;28;19917;-70
2022/02/21 10:01:10;;;;;;;;;;;6.70;63.40;;;;;;5043481;28;19910;-70
2022/02/21 10:03:36;;;;;;;;;;;6.70;66.50;;;;;;5043253;28;19936;-70
2022/02/21 10:06:32;;;;;;;;;;;6.80;65.30;;;;;;5044328;28;19917;-71
2022/02/21 10:09:10;;;;;;;;;;;6.80;65.80;;;;;;5053529;28;19954;-71
2022/02/21 10:11:39;;;;;;;;;;;6.80;65.20;;;;;;5064020;28;19916;-70
2022/02/21 10:14:13;;;;;;;;;;;6.70;65.80;;;;;;5063024;28;19909;-71
2022/02/21 10:16:46;;;;;;;;;;;6.80;66.40;;;;;;5046601;28;20131;-70
2022/02/21 10:19:18;;;;;;;;;;;6.70;66.60;;;;;;5062754;28;19951;-71
2022/02/21 10:22:01;;;;;;;;;;;6.90;67.70;;;;;;5063446;28;19913;-71
2022/02/21 10:24:37;;;;;;;;;;;6.90;67.40;;;;;;5063712;28;19909;-71
2022/02/21 10:27:20;;;;;;;;;;;7.10;68.20;;;;;;5063706;28;19909;-71
2022/02/21 10:29:46;;;;;;;;;;;7.20;65.20;;;;;;5062524;28;20000;-70
2022/02/21 10:32:12;;;;;;;;;;;7.50;66.00;;;;;;5063519;28;19975;-69
2022/02/21 10:34:38;;;;;;;;;;;7.50;65.50;;;;;;5059640;28;19912;-70
2022/02/21 10:37:05;;;;;;;;;;;7.60;63.60;;;;;;5051411;28;19932;-70
2022/02/21 10:39:31;;;;;;;;;;;7.70;64.30;;;;;;5052270;28;19921;-71
2022/02/21 10:41:57;;;;;;;;;;;7.80;62.60;;;;;;5025664;28;19913;-70
2022/02/21 10:44:28;;;;;;;;;;;7.70;59.00;;;;;;5042225;28;19916;-70
2022/02/21 10:47:19;;;;;;;;;;;7.90;59.60;;;;;;5026078;28;19916;-70
2022/02/21 10:49:50;;;;;;;;;;;8.00;57.80;;;;;;5061955;28;19912;-70
2022/02/21 10:52:21;;;;;;;;;;;7.70;58.30;;;;;;5055206;28;19913;-70
2022/02/21 10:54:46;;;;;;;;;;;7.60;59.50;;;;;;5061874;28;19909;-70
2022/02/21 10:57:14;;;;;;;;;;;7.60;60.70;;;;;;5050448;28;19913;-70
2022/02/21 10:59:39;;;;;;;;;;;7.70;61.60;;;;;;5042277;28;19916;-71
2022/02/21 11:02:07;;;;;;;;;;;8.20;61.40;;;;;;5041806;28;19917;-70
2022/02/21 11:04:36;;;;;;;;;;;8.80;57.80;;;;;;5042197;28;19909;-70
2022/02/21 11:07:01;;;;;;;;;;;9.30;55.90;;;;;;5043227;28;19909;-71
2022/02/21 11:09:29;;;;;;;;;;;9.20;56.90;;;;;;5043415;28;19920;-71
2022/02/21 11:11:55;;;;;;;;;;;9.00;58.10;;;;;;5061855;28;19912;-70
2022/02/21 11:14:25;;;;;;;;;;;8.80;58.70;;;;;;5063527;28;20196;-70
2022/02/21 11:16:51;;;;;;;;;;;9.00;60.80;;;;;;5063210;28;19951;-70
2022/02/21 11:19:17;;;;;;;;;;;9.10;60.10;;;;;;5059733;28;20108;-70
2022/02/21 11:21:44;;;;;;;;;;;8.70;60.60;;;;;;5051145;28;19960;-70
2022/02/21 11:24:11;;;;;;;;;;;8.40;61.30;;;;;;5052724;28;19912;-70
2022/02/21 11:27:03;;;;;;;;;;;8.10;65.30;;;;;;5051367;28;19971;-70
2022/02/21 11:29:43;;;;;;;;;;;8.00;66.40;;;;;;5052126;28;20067;-71
2022/02/21 11:32:17;;;;;;;;;;;7.80;66.60;;;;;;5062316;28;19919;-71
2022/02/21 11:35:10;;;;;;;;;;;7.60;68.70;;;;;;5061721;28;20136;-71
2022/02/21 11:37:36;;;;;;;;;;;7.50;69.70;;;;;;5062274;28;20011;-70
2022/02/21 11:40:01;;;;;;;;;;;7.50;71.00;;;;;;5044414;28;19913;-70
2022/02/21 11:42:29;;;;;;;;;;;8.30;66.60;;;;;;5041477;28;19955;-70
2022/02/21 11:44:58;;;;;;;;;;;9.50;61.60;;;;;;5046281;28;20242;-71
2022/02/21 11:47:40;;;;;;;;;;;9.50;57.40;;;;;;5042716;28;19980;-71
2022/02/21 11:50:28;;;;;;;;;;;9.10;60.40;;;;;;5042908;28;20222;-71
2022/02/21 11:52:56;;;;;;;;;;;9.00;61.60;;;;;;5041638;28;20400;-71
2022/02/21 11:55:38;;;;;;;;;;;9.40;62.80;;;;;;5060963;28;19971;-72
2022/02/21 11:58:13;;;;;;;;;;;10.10;60.60;;;;;;5061563;28;19913;-71
2022/02/21 12:00:40;;;;;;;;;;;9.50;60.10;;;;;;5062872;28;20285;-71
2022/02/21 12:03:18;;;;;;;;;;;9.00;60.70;;;;;;5064105;28;20012;-71
2022/02/21 12:05:53;;;;;;;;;;;8.60;63.20;;;;;;5063637;28;19955;-73
2022/02/21 12:08:31;;;;;;;;;;;8.70;62.80;;;;;;5061664;28;19944;-72
2022/02/21 12:11:03;;;;;;;;;;;9.60;59.30;;;;;;5062577;28;20246;-73
2022/02/21 12:13:35;;;;;;;;;;;9.40;57.10;;;;;;5062765;28;19995;-73
2022/02/21 12:16:05;;;;;;;;;;;9.30;57.00;;;;;;5045978;28;19916;-70
2022/02/21 12:18:38;;;;;;;;;;;9.20;58.70;;;;;;5062500;28;20115;-71
2022/02/21 12:21:24;;;;;;;;;;;8.80;59.60;;;;;;5062106;28;19909;-70
2022/02/21 12:23:55;;;;;;;;;;;8.40;61.80;;;;;;5064488;28;20014;-70
2022/02/21 12:26:21;;;;;;;;;;;7.90;64.30;;;;;;5066328;28;19979;-70
2022/02/21 12:29:15;;;;;;;;;;;7.70;65.50;;;;;;5065948;28;19909;-70
2022/02/21 12:31:43;;;;;;;;;;;7.40;67.40;;;;;;5065681;28;19956;-71
2022/02/21 12:34:09;;;;;;;;;;;7.30;68.30;;;;;;5064946;28;19909;-70
2022/02/21 12:36:36;;;;;;;;;;;7.40;70.00;;;;;;5065630;28;19909;-71
2022/02/21 12:39:03;;;;;;;;;;;7.90;67.90;;;;;;5064198;28;19913;-71
2022/02/21 12:41:31;;;;;;;;;;;8.10;64.60;;;;;;5065460;28;19908;-71
2022/02/21 12:44:00;;;;;;;;;;;7.90;65.30;;;;;;5065708;28;19915;-70
2022/02/21 12:46:27;;;;;;;;;;;7.70;64.50;;;;;;5064782;28;20200;-71
2022/02/21 12:48:53;;;;;;;;;;;7.60;66.00;;;;;;5065413;28;20242;-71
2022/02/21 12:51:22;;;;;;;;;;;7.70;64.30;;;;;;5063773;28;19913;-69
2022/02/21 12:54:03;;;;;;;;;;;8.00;62.30;;;;;;5043923;28;19931;-70
2022/02/21 12:56:30;;;;;;;;;;;8.40;60.60;;;;;;5045261;28;19948;-71
2022/02/21 12:58:56;;;;;;;;;;;10.20;54.60;;;;;;5045266;28;19921;-71
2022/02/21 13:01:22;;;;;;;;;;;12.00;50.10;;;;;;5044328;28;20147;-70
2022/02/21 13:03:52;;;;;;;;;;;13.40;45.50;;;;;;5043861;28;20246;-71
2022/02/21 13:06:18;;;;;;;;;;;15.50;41.10;;;;;;5044267;28;19976;-71
2022/02/21 13:08:44;;;;;;;;;;;15.40;39.20;;;;;;5054761;28;20022;-71
2022/02/21 13:11:09;;;;;;;;;;;13.70;41.60;;;;;;5064066;28;19909;-70
2022/02/21 13:13:45;;;;;;;;;;;12.10;45.50;;;;;;5064058;28;20198;-70
2022/02/21 13:16:10;;;;;;;;;;;11.30;47.90;;;;;;5063102;28;20220;-71
2022/02/21 13:19:14;;;;;;;;;;;9.90;50.90;;;;;;5062356;28;19913;-71
2022/02/21 13:21:42;;;;;;;;;;;9.60;53.50;;;;;;5022547;28;20204;-71
2022/02/21 13:24:13;;;;;;;;;;;9.30;54.00;;;;;;5021753;28;19913;-70
2022/02/21 13:26:55;;;;;;;;;;;8.90;54.60;;;;;;5042695;28;20156;-71
2022/02/21 13:29:36;;;;;;;;;;;8.60;54.00;;;;;;5063608;28;20259;-71
2022/02/21 13:32:37;;;;;;;;;;;8.40;55.90;;;;;;5063362;28;19909;-70
2022/02/21 13:35:03;;;;;;;;;;;8.10;57.20;;;;;;5062352;28;20107;-70
2022/02/21 13:37:31;;;;;;;;;;;8.10;58.70;;;;;;5062922;28;19936;-71
2022/02/21 13:40:23;;;;;;;;;;;7.90;59.80;;;;;;5063370;28;19909;-71
2022/02/21 13:42:55;;;;;;;;;;;7.80;61.10;;;;;;5060996;28;19988;-72
2022/02/21 13:45:30;;;;;;;;;;;7.80;60.40;;;;;;5063764;28;20003;-70
2022/02/21 13:48:06;;;;;;;;;;;7.90;63.70;;;;;;5062751;28;19951;-70
2022/02/21 13:50:32;;;;;;;;;;;7.80;65.20;;;;;;5063703;28;19944;-71
2022/02/21 13:52:58;;;;;;;;;;;7.70;65.40;;;;;;5063806;28;19908;-71
2022/02/21 13:55:25;;;;;;;;;;;7.70;64.80;;;;;;5063245;28;19979;-72
2022/02/21 13:58:01;;;;;;;;;;;7.70;65.40;;;;;;5063066;28;19908;-70
2022/02/21 14:00:37;;;;;;;;;;;7.70;65.20;;;;;;5062982;28;19975;-71
2022/02/21 14:03:02;;;;;;;;;;;7.90;61.60;;;;;;5060763;28;20119;-71
2022/02/21 14:05:28;;;;;;;;;;;8.10;61.30;;;;;;5063209;28;19953;-71
2022/02/21 14:07:54;;;;;;;;;;;8.00;60.10;;;;;;5062718;28;19913;-71
2022/02/21 14:10:24;;;;;;;;;;;7.90;59.40;;;;;;5062986;28;19938;-70
2022/02/21 14:13:00;;;;;;;;;;;7.80;60.20;;;;;;5063141;28;19909;-70
2022/02/21 14:15:25;;;;;;;;;;;7.80;61.30;;;;;;5056838;28;19909;-70
2022/02/21 14:17:51;;;;;;;;;;;7.80;62.20;;;;;;5042627;28;19932;-71
2022/02/21 14:20:17;;;;;;;;;;;7.80;61.70;;;;;;5058861;28;20254;-70
2022/02/21 14:22:43;;;;;;;;;;;7.90;61.30;;;;;;5062519;28;20019;-70
2022/02/21 14:25:08;;;;;;;;;;;7.90;61.80;;;;;;5062750;28;20116;-70
2022/02/21 14:27:34;;;;;;;;;;;7.80;62.20;;;;;;5061248;28;19909;-70
2022/02/21 14:30:00;;;;;;;;;;;7.80;62.60;;;;;;5062720;28;20019;-70
2022/02/21 14:32:26;;;;;;;;;;;7.70;63.40;;;;;;5060883;28;19967;-69
2022/02/21 14:34:53;;;;;;;;;;;7.70;64.30;;;;;;5062437;28;19909;-70